createdAt,value
2019-04-21T10:41:33.103Z,4708.00
2019-04-21T10:42:33.200Z,8000.00
2019-04-21T10:43:33.445Z,24672.00
2019-04-21T10:44:32.177Z,16064.00
2019-04-21T10:45:32.788Z,8320.00
2019-04-21T10:46:34.877Z,14736.00
2019-04-21T10:47:32.143Z,28224.00
2019-04-21T10:48:34.562Z,34752.00
2019-04-21T10:49:32.757Z,18112.00
2019-04-21T10:50:32.105Z,23808.00
2019-04-21T10:51:32.880Z,17696.00
2019-04-21T10:52:34.019Z,30016.00
2019-04-21T10:53:32.086Z,22400.00
2019-04-21T10:54:57.284Z,19808.00
2019-04-21T10:55:48.696Z,15796.00
2019-04-21T10:56:37.994Z,14808.00
2019-04-21T10:57:33.041Z,13348.00
2019-04-21T10:58:32.236Z,17280.00
2019-04-21T10:59:33.129Z,28032.00
2019-04-21T11:00:32.401Z,11972.00
2019-04-21T11:01:31.995Z,15648.00
2019-04-21T11:02:32.922Z,18848.00
2019-04-21T11:03:33.216Z,28320.00
2019-04-21T11:04:36.459Z,13756.00
2019-04-21T11:05:32.953Z,28608.00
2019-04-21T11:06:32.615Z,31328.00
2019-04-21T11:07:39.010Z,12080.00
2019-04-21T11:08:38.045Z,23776.00
2019-04-21T11:09:33.946Z,18944.00
2019-04-21T11:10:32.061Z,32800.00
2019-04-21T11:11:32.211Z,26688.00
2019-04-21T11:12:31.885Z,24416.00
2019-04-21T11:13:32.637Z,13996.00
2019-04-21T11:14:31.909Z,18336.00
2019-04-21T11:15:32.832Z,20992.00
2019-04-21T11:16:33.145Z,3860.00
2019-04-21T11:17:32.335Z,3500.00
2019-04-21T11:18:31.846Z,3508.00
2019-04-21T11:19:32.789Z,3492.00
2019-04-21T11:20:32.972Z,3432.00
2019-04-21T11:21:31.784Z,3400.00
2019-04-21T11:22:33.938Z,3424.00
2019-04-21T11:23:33.103Z,3448.00
2019-04-21T11:24:33.139Z,3476.00
2019-04-21T11:25:31.742Z,3504.00
2019-04-21T11:26:31.959Z,3532.00
2019-04-21T11:27:33.135Z,3572.00
2019-04-21T11:28:31.713Z,3600.00
2019-04-21T11:29:32.966Z,3656.00
2019-04-21T11:30:31.853Z,3704.00
2019-04-21T11:31:31.682Z,3764.00
2019-04-21T11:32:32.790Z,3836.00
2019-04-21T11:33:31.658Z,3904.00
2019-04-21T11:34:31.659Z,3988.00
2019-04-21T11:35:32.899Z,4068.00
2019-04-21T11:36:31.631Z,4184.00
2019-04-21T11:37:32.317Z,4324.00
2019-04-21T11:38:33.532Z,4508.00
2019-04-21T11:39:42.109Z,6976.00
2019-04-21T11:40:34.034Z,12496.00
2019-04-21T11:41:31.919Z,22848.00
2019-04-21T11:42:31.569Z,36096.00
2019-04-21T11:43:32.773Z,49120.00
2019-04-21T11:44:31.550Z,57952.00
2019-04-21T11:45:32.676Z,39328.00
2019-04-21T11:46:31.528Z,8464.00
2019-04-21T11:47:32.266Z,3488.00
2019-04-21T11:48:32.516Z,3684.00
2019-04-21T11:49:32.593Z,29664.00
2019-04-21T11:50:32.837Z,68608.00
2019-04-21T11:51:31.478Z,73376.00
2019-04-21T11:52:32.599Z,72032.00
2019-04-21T11:53:32.773Z,71456.00
2019-04-21T11:54:32.832Z,65184.00
2019-04-21T11:55:34.375Z,56064.00
2019-04-21T11:56:32.776Z,51904.00
2019-04-21T11:57:36.741Z,56992.00
2019-04-21T11:58:32.407Z,65760.00
2019-04-21T11:59:31.398Z,67008.00
2019-04-21T12:00:31.655Z,67040.00
2019-04-21T12:01:31.892Z,67072.00
2019-04-21T12:02:31.377Z,69280.00
2019-04-21T12:03:31.787Z,71104.00
2019-04-21T12:04:31.693Z,70208.00
2019-04-21T12:05:31.365Z,55200.00
2019-04-21T12:06:37.760Z,21248.00
2019-04-21T12:07:33.405Z,4788.00
2019-04-21T12:08:39.301Z,27232.00
2019-04-21T12:09:33.294Z,57792.00
2019-04-21T12:10:31.551Z,66304.00
2019-04-21T12:11:31.500Z,65664.00
2019-04-21T12:12:31.270Z,63200.00
2019-04-21T12:13:32.193Z,59296.00
2019-04-21T12:14:32.119Z,61152.00
2019-04-21T12:15:31.463Z,60896.00
2019-04-21T12:16:31.236Z,60928.00
2019-04-21T12:17:32.074Z,62112.00
2019-04-21T12:18:32.454Z,62080.00
2019-04-21T12:19:32.477Z,63712.00
2019-04-21T12:20:31.214Z,62912.00
2019-04-21T12:21:47.979Z,61632.00
2019-04-21T12:22:33.975Z,62272.00
2019-04-21T12:23:32.395Z,65216.00
2019-04-21T12:24:32.839Z,56320.00
2019-04-21T12:25:31.399Z,39328.00
2019-04-21T12:26:31.804Z,13528.00
2019-04-21T12:27:32.045Z,3184.00
2019-04-21T12:28:32.397Z,3160.00
2019-04-21T12:29:31.103Z,2956.00
2019-04-21T12:30:31.567Z,2808.00
2019-04-21T12:31:31.750Z,2692.00
2019-04-21T12:32:31.071Z,2628.00
2019-04-21T12:33:32.086Z,2604.00
2019-04-21T12:34:32.166Z,2588.00
2019-04-21T12:35:31.050Z,2568.00
2019-04-21T12:36:31.756Z,2564.00
2019-04-21T12:37:31.047Z,2552.00
2019-04-21T12:38:40.930Z,2536.00
2019-04-21T12:39:32.805Z,2528.00
2019-04-21T12:40:31.000Z,2492.00
2019-04-21T12:41:31.018Z,2456.00
2019-04-21T12:42:32.337Z,2428.00
2019-04-21T12:43:30.959Z,2408.00
2019-04-21T12:44:31.645Z,2384.00
2019-04-21T12:45:31.598Z,2344.00
2019-04-21T12:46:31.838Z,2272.00
2019-04-21T12:47:32.022Z,2192.00
2019-04-21T12:48:31.781Z,2124.00
2019-04-21T12:49:31.791Z,2088.00
2019-04-21T12:50:32.083Z,2076.00
2019-04-21T12:51:30.887Z,2092.00
2019-04-21T12:52:31.559Z,2120.00
2019-04-21T12:53:31.906Z,2232.00
2019-04-21T12:54:30.852Z,11172.00
2019-04-21T12:55:36.622Z,34304.00
2019-04-21T12:56:31.841Z,48960.00
2019-04-21T12:57:32.809Z,50400.00
2019-04-21T12:58:31.108Z,50560.00
2019-04-21T12:59:34.512Z,49536.00
2019-04-21T13:00:31.224Z,46080.00
2019-04-21T13:01:30.888Z,29184.00
2019-04-21T13:02:31.710Z,7132.00
2019-04-21T13:03:32.073Z,21312.00
2019-04-21T13:04:31.555Z,43616.00
2019-04-21T13:05:31.631Z,43616.00
2019-04-21T13:06:31.788Z,32192.00
2019-04-21T13:07:31.211Z,13888.00
2019-04-21T13:08:43.610Z,4136.00
2019-04-21T13:09:32.467Z,2820.00
2019-04-21T13:10:30.705Z,2688.00
2019-04-21T13:11:31.016Z,2504.00
2019-04-21T13:12:31.114Z,2336.00
2019-04-21T13:13:30.646Z,2188.00
2019-04-21T13:14:31.579Z,2068.00
2019-04-21T13:15:31.388Z,1976.00
2019-04-21T13:16:31.675Z,1924.00
2019-04-21T13:17:31.115Z,1872.00
2019-04-21T13:18:31.490Z,1828.00
2019-04-21T13:19:31.525Z,1776.00
2019-04-21T13:20:30.579Z,1744.00
2019-04-21T13:21:31.910Z,1744.00
2019-04-21T13:22:30.552Z,1740.00
2019-04-21T13:23:31.317Z,1716.00
2019-04-21T13:24:31.720Z,1668.00
2019-04-21T13:25:31.687Z,1632.00
2019-04-21T13:26:41.911Z,1620.00
2019-04-21T13:27:31.499Z,1608.00
2019-04-21T13:28:30.513Z,1588.00
2019-04-21T13:29:30.490Z,1600.00
2019-04-21T13:30:30.616Z,1592.00
2019-04-21T13:31:30.469Z,1568.00
2019-04-21T13:32:31.164Z,1564.00
2019-04-21T13:33:31.223Z,1540.00
2019-04-21T13:34:31.702Z,1556.00
2019-04-21T13:35:30.959Z,1544.00
2019-04-21T13:36:31.669Z,1524.00
2019-04-21T13:37:30.403Z,1528.00
2019-04-21T13:38:38.733Z,1504.00
2019-04-21T13:39:55.583Z,1496.00
2019-04-21T13:40:51.762Z,1480.00
2019-04-21T13:41:42.898Z,1480.00
2019-04-21T13:42:39.466Z,1460.00
2019-04-21T13:43:32.860Z,1464.00
2019-04-21T13:44:30.942Z,1452.00
2019-04-21T13:45:30.310Z,1452.00
2019-04-21T13:46:31.096Z,1460.00
2019-04-21T13:47:30.558Z,1448.00
2019-04-21T13:48:30.706Z,1452.00
2019-04-21T13:49:31.532Z,1448.00
2019-04-21T13:50:31.176Z,1452.00
2019-04-21T13:51:31.147Z,1436.00
2019-04-21T13:52:30.950Z,1420.00
2019-04-21T13:53:32.581Z,1392.00
2019-04-21T13:54:31.506Z,1400.00
2019-04-21T13:55:31.756Z,1424.00
2019-04-21T13:56:30.196Z,1416.00
2019-04-21T13:57:30.462Z,1400.00
2019-04-21T13:58:30.492Z,1400.00
2019-04-21T13:59:30.166Z,1380.00
2019-04-21T14:00:31.657Z,1344.00
2019-04-21T14:01:30.141Z,1336.00
2019-04-21T14:02:30.955Z,1328.00
2019-04-21T14:03:31.327Z,1316.00
2019-04-21T14:04:31.415Z,1312.00
2019-04-21T14:05:30.673Z,1308.00
2019-04-21T14:06:30.249Z,1300.00
2019-04-21T14:07:30.303Z,1280.00
2019-04-21T14:08:31.295Z,1284.00
2019-04-21T14:09:40.411Z,1268.00
2019-04-21T14:10:31.539Z,1260.00
2019-04-21T14:11:31.324Z,1244.00
2019-04-21T14:12:30.037Z,1228.00
2019-04-21T14:13:30.344Z,1212.00
2019-04-21T14:14:30.394Z,1212.00
2019-04-21T14:15:30.366Z,1192.00
2019-04-21T14:16:30.010Z,1176.00
2019-04-21T14:17:30.943Z,1172.00
2019-04-21T14:18:30.986Z,1164.00
2019-04-21T14:19:31.045Z,1160.00
2019-04-21T14:20:31.107Z,1156.00
2019-04-21T14:21:31.298Z,1156.00
2019-04-21T14:22:29.926Z,1156.00
2019-04-21T14:23:37.477Z,1152.00
2019-04-21T14:24:31.037Z,1156.00
2019-04-21T14:25:29.995Z,1152.00
2019-04-21T14:26:30.033Z,1148.00
2019-04-21T14:27:30.161Z,1136.00
2019-04-21T14:28:30.309Z,1108.00
2019-04-21T14:29:31.231Z,1080.00
2019-04-21T14:30:30.471Z,1096.00
2019-04-21T14:31:30.443Z,1096.00
2019-04-21T14:32:29.841Z,1108.00
2019-04-21T14:33:29.924Z,1104.00
2019-04-21T14:34:30.231Z,1092.00
2019-04-21T14:35:29.792Z,1080.00
2019-04-21T14:36:30.707Z,1076.00
2019-04-21T14:37:30.832Z,1072.00
2019-04-21T14:38:29.752Z,1084.00
2019-04-21T14:39:30.391Z,1112.00
2019-04-21T14:40:32.873Z,1024.00
2019-04-21T14:41:30.389Z,1164.00
2019-04-21T14:42:29.925Z,1156.00
2019-04-21T14:43:30.103Z,1116.00
2019-04-21T14:44:31.016Z,1096.00
2019-04-21T14:45:30.408Z,1088.00
2019-04-21T14:46:31.148Z,1072.00
2019-04-21T14:47:29.669Z,1048.00
2019-04-21T14:48:29.724Z,1008.00
2019-04-21T14:49:30.969Z,956.00
2019-04-21T14:50:30.385Z,940.00
2019-04-21T14:51:29.606Z,936.00
2019-04-21T14:52:30.844Z,916.00
2019-04-21T14:53:29.760Z,908.00
2019-04-21T14:54:30.883Z,896.00
2019-04-21T14:55:31.081Z,892.00
2019-04-21T14:56:29.556Z,888.00
2019-04-21T14:57:29.625Z,880.00
2019-04-21T14:58:30.741Z,872.00
2019-04-21T14:59:31.001Z,868.00
2019-04-21T15:00:29.509Z,860.00
2019-04-21T15:01:29.500Z,852.00
2019-04-21T15:02:29.917Z,848.00
2019-04-21T15:03:29.961Z,844.00
2019-04-21T15:04:29.465Z,840.00
2019-04-21T15:05:29.455Z,828.00
2019-04-21T15:06:29.597Z,824.00
2019-04-21T15:07:30.840Z,820.00
2019-04-21T15:08:29.435Z,816.00
2019-04-21T15:09:29.560Z,812.00
2019-04-21T15:10:32.197Z,804.00
2019-04-21T15:11:29.881Z,800.00
2019-04-21T15:12:29.957Z,796.00
2019-04-21T15:13:29.995Z,792.00
2019-04-21T15:14:29.811Z,784.00
2019-04-21T15:15:29.959Z,776.00
2019-04-21T15:16:29.338Z,768.00
2019-04-21T15:17:29.449Z,764.00
2019-04-21T15:18:30.647Z,756.00
2019-04-21T15:19:30.482Z,748.00
2019-04-21T15:20:30.892Z,748.00
2019-04-21T15:21:29.283Z,736.00
2019-04-21T15:22:30.462Z,728.00
2019-04-21T15:23:30.507Z,732.00
2019-04-21T15:24:30.210Z,728.00
2019-04-21T15:25:30.201Z,728.00
2019-04-21T15:26:30.456Z,728.00
2019-04-21T15:27:30.615Z,720.00
2019-04-21T15:28:32.128Z,720.00
2019-04-21T15:29:29.199Z,712.00
2019-04-21T15:30:29.193Z,712.00
2019-04-21T15:31:33.882Z,708.00
2019-04-21T15:32:30.633Z,704.00
2019-04-21T15:33:29.167Z,700.00
2019-04-21T15:34:29.842Z,700.00
2019-04-21T15:35:29.135Z,688.00
2019-04-21T15:36:31.767Z,684.00
2019-04-21T15:37:29.115Z,680.00
2019-04-21T15:38:29.829Z,676.00
2019-04-21T15:39:29.834Z,672.00
2019-04-21T15:40:40.695Z,668.00
2019-04-21T15:41:30.285Z,668.00
2019-04-21T15:42:30.553Z,664.00
2019-04-21T15:43:29.064Z,660.00
2019-04-21T15:44:30.406Z,664.00
2019-04-21T15:45:30.500Z,660.00
2019-04-21T15:46:31.775Z,652.00
2019-04-21T15:47:29.005Z,648.00
2019-04-21T15:48:29.011Z,644.00
2019-04-21T15:49:43.475Z,640.00
2019-04-21T15:50:30.245Z,632.00
2019-04-21T15:51:29.624Z,628.00
2019-04-21T15:52:29.918Z,624.00
2019-04-21T15:53:29.799Z,620.00
2019-04-21T15:54:28.969Z,616.00
2019-04-21T15:55:28.924Z,608.00
2019-04-21T15:56:28.974Z,604.00
2019-04-21T15:57:30.049Z,596.00
2019-04-21T15:58:30.356Z,596.00
2019-04-21T15:59:28.890Z,588.00
2019-04-21T16:00:28.869Z,580.00
2019-04-21T16:01:30.251Z,572.00
2019-04-21T16:02:28.850Z,568.00
2019-04-21T16:03:29.032Z,560.00
2019-04-21T16:04:28.835Z,556.00
2019-04-21T16:05:28.816Z,548.00
2019-04-21T16:06:29.663Z,544.00
2019-04-21T16:07:29.889Z,540.00
2019-04-21T16:08:29.081Z,536.00
2019-04-21T16:09:30.701Z,528.00
2019-04-21T16:10:38.618Z,524.00
2019-04-21T16:11:29.753Z,524.00
2019-04-21T16:12:29.668Z,516.00
2019-04-21T16:13:29.912Z,516.00
2019-04-21T16:14:29.098Z,508.00
2019-04-21T16:15:28.716Z,504.00
2019-04-21T16:16:30.865Z,500.00
2019-04-21T16:17:29.590Z,496.00
2019-04-21T16:18:29.931Z,496.00
2019-04-21T16:19:29.332Z,492.00
2019-04-21T16:20:29.987Z,492.00
2019-04-21T16:21:29.544Z,488.00
2019-04-21T16:22:28.733Z,484.00
2019-04-21T16:23:28.807Z,480.00
2019-04-21T16:24:28.628Z,476.00
2019-04-21T16:25:28.753Z,476.00
2019-04-21T16:26:28.852Z,476.00
2019-04-21T16:27:29.597Z,472.00
2019-04-21T16:28:29.005Z,468.00
2019-04-21T16:29:29.252Z,464.00
2019-04-21T16:30:28.729Z,464.00
2019-04-21T16:31:30.048Z,460.00
2019-04-21T16:32:28.569Z,456.00
2019-04-21T16:33:29.268Z,456.00
2019-04-21T16:34:39.035Z,452.00
2019-04-21T16:35:29.664Z,448.00
2019-04-21T16:36:29.530Z,448.00
2019-04-21T16:37:29.673Z,448.00
2019-04-21T16:38:29.306Z,444.00
2019-04-21T16:39:29.451Z,444.00
2019-04-21T16:40:39.825Z,444.00
2019-04-21T16:41:29.429Z,440.00
2019-04-21T16:42:28.436Z,440.00
2019-04-21T16:43:29.142Z,436.00
2019-04-21T16:44:29.428Z,436.00
2019-04-21T16:45:28.700Z,432.00
2019-04-21T16:46:29.520Z,432.00
2019-04-21T16:47:28.399Z,428.00
2019-04-21T16:48:28.355Z,428.00
2019-04-21T16:49:29.577Z,424.00
2019-04-21T16:50:29.677Z,420.00
2019-04-21T16:51:28.528Z,420.00
2019-04-21T16:52:28.312Z,416.00
2019-04-21T16:53:28.324Z,408.00
2019-04-21T16:54:28.292Z,408.00
2019-04-21T16:55:28.845Z,400.00
2019-04-21T16:56:29.083Z,396.00
2019-04-21T16:57:28.268Z,396.00
2019-04-21T16:58:29.034Z,388.00
2019-04-21T16:59:28.677Z,384.00
2019-04-21T17:00:40.173Z,380.00
2019-04-21T17:01:30.174Z,376.00
2019-04-21T17:02:28.406Z,368.00
2019-04-21T17:03:28.396Z,368.00
2019-04-21T17:04:28.756Z,364.00
2019-04-21T17:05:28.181Z,360.00
2019-04-21T17:06:29.216Z,356.00
2019-04-21T17:07:28.254Z,352.00
2019-04-21T17:08:28.163Z,348.00
2019-04-21T17:09:28.552Z,344.00
2019-04-21T17:10:28.772Z,340.00
2019-04-21T17:11:31.698Z,332.00
2019-04-21T17:12:30.667Z,328.00
2019-04-21T17:13:29.574Z,324.00
2019-04-21T17:14:45.294Z,320.00
2019-04-21T17:15:48.206Z,312.00
2019-04-21T17:16:57.649Z,304.00
2019-04-21T17:17:50.048Z,296.00
2019-04-21T17:18:43.468Z,296.00
2019-04-21T17:19:33.111Z,288.00
2019-04-21T17:20:39.884Z,280.00
2019-04-21T17:21:30.070Z,280.00
2019-04-21T17:22:28.113Z,272.00
2019-04-21T17:23:29.339Z,268.00
2019-04-21T17:24:28.610Z,260.00
2019-04-21T17:25:29.726Z,260.00
2019-04-21T17:26:29.037Z,252.00
2019-04-21T17:27:29.225Z,248.00
2019-04-21T17:28:27.928Z,244.00
2019-04-21T17:29:28.505Z,240.00
2019-04-21T17:30:28.444Z,236.00
2019-04-21T17:31:28.827Z,232.00
2019-04-21T17:32:34.376Z,224.00
2019-04-21T17:33:30.383Z,220.00
2019-04-21T17:34:30.204Z,216.00
2019-04-21T17:35:28.977Z,212.00
2019-04-21T17:36:29.322Z,208.00
2019-04-21T17:37:29.205Z,204.00
2019-04-21T17:38:28.028Z,200.00
2019-04-21T17:39:28.919Z,196.00
2019-04-21T17:40:27.829Z,192.00
2019-04-21T17:41:33.998Z,184.00
2019-04-21T17:42:36.301Z,180.00
2019-04-21T17:43:29.876Z,180.00
2019-04-21T17:44:27.828Z,172.00
2019-04-21T17:45:28.963Z,168.00
2019-04-21T17:46:36.563Z,164.00
2019-04-21T17:47:38.404Z,160.00
2019-04-21T17:48:29.268Z,156.00
2019-04-21T17:49:28.784Z,152.00
2019-04-21T17:50:27.688Z,148.00
2019-04-21T17:51:27.708Z,148.00
2019-04-21T17:52:35.235Z,140.00
2019-04-21T17:53:34.624Z,136.00
2019-04-21T17:54:35.644Z,132.00
2019-04-21T17:55:33.600Z,128.00
2019-04-21T17:56:53.664Z,124.00
2019-04-21T17:57:51.803Z,116.00
2019-04-21T17:58:55.163Z,112.00
2019-04-21T17:59:56.337Z,108.00
2019-04-21T18:01:09.257Z,104.00
2019-04-21T18:01:48.624Z,96.00
2019-04-21T18:02:51.829Z,92.00
2019-04-21T18:03:53.559Z,88.00
2019-04-21T18:04:49.303Z,84.00
2019-04-21T18:05:47.040Z,76.00
2019-04-21T18:06:46.716Z,72.00
2019-04-21T18:07:46.527Z,68.00
2019-04-21T18:08:48.330Z,64.00
2019-04-21T18:09:51.077Z,60.00
2019-04-21T18:10:43.998Z,52.00
2019-04-21T18:11:46.903Z,48.00
2019-04-21T18:12:42.465Z,44.00
2019-04-21T18:13:28.771Z,40.00
2019-04-21T18:14:28.467Z,40.00
2019-04-21T18:15:40.257Z,36.00
2019-04-21T18:16:34.237Z,32.00
2019-04-21T18:17:28.770Z,28.00
2019-04-21T18:18:28.741Z,28.00
2019-04-21T18:19:31.051Z,24.00
2019-04-21T18:20:28.371Z,20.00
2019-04-21T18:21:27.371Z,20.00
2019-04-21T18:22:34.246Z,16.00
2019-04-21T18:23:39.432Z,12.00
2019-04-21T18:24:41.132Z,16.00
2019-04-21T18:25:44.415Z,12.00
2019-04-21T18:26:38.010Z,12.00
2019-04-21T18:27:29.781Z,8.00
2019-04-21T18:28:28.442Z,8.00
2019-04-21T18:29:27.727Z,8.00
2019-04-21T18:30:28.378Z,4.00
2019-04-21T18:31:33.910Z,4.00
2019-04-21T18:32:34.142Z,4.00
2019-04-21T18:33:33.835Z,4.00
2019-04-21T18:34:30.682Z,0.00
2019-04-21T18:35:29.297Z,4.00
2019-04-21T18:36:34.101Z,4.00
2019-04-21T18:37:35.026Z,0.00
2019-04-21T18:38:43.126Z,0.00
2019-04-21T18:39:45.388Z,4.00
2019-04-21T18:40:34.848Z,0.00
2019-04-21T18:41:30.135Z,0.00
2019-04-21T18:42:47.875Z,0.00
2019-04-21T18:43:56.752Z,0.00
2019-04-21T18:45:07.632Z,0.00
2019-04-21T18:45:57.267Z,0.00
2019-04-21T18:46:55.575Z,0.00
2019-04-21T18:47:39.876Z,0.00
2019-04-21T18:48:37.053Z,0.00
2019-04-21T18:49:29.170Z,0.00
2019-04-21T18:50:29.365Z,0.00
2019-04-21T18:51:39.171Z,0.00
2019-04-21T18:52:45.338Z,0.00
2019-04-21T18:53:47.006Z,0.00
2019-04-21T18:54:45.844Z,0.00
2019-04-21T18:55:34.254Z,0.00
2019-04-21T18:56:29.547Z,0.00
2019-04-21T18:57:36.726Z,0.00
2019-04-21T18:58:28.802Z,0.00
2019-04-21T18:59:33.913Z,0.00
2019-04-21T19:00:31.769Z,0.00
2019-04-21T19:01:31.320Z,0.00
2019-04-21T19:02:31.759Z,0.00
2019-04-21T19:03:35.403Z,0.00
2019-04-21T19:04:30.053Z,0.00
2019-04-21T19:05:29.675Z,0.00
2019-04-21T19:06:48.389Z,0.00
2019-04-21T19:07:45.456Z,0.00
2019-04-21T19:08:46.601Z,0.00
2019-04-21T19:10:11.386Z,0.00
2019-04-21T19:10:50.306Z,0.00
2019-04-21T19:11:49.714Z,0.00
2019-04-21T19:13:16.164Z,0.00
2019-04-21T19:13:51.151Z,0.00
2019-04-21T19:14:46.027Z,0.00
2019-04-21T19:16:07.571Z,0.00
2019-04-21T19:16:47.554Z,0.00
2019-04-21T19:18:53.059Z,0.00
2019-04-21T19:20:10.610Z,0.00
2019-04-21T19:20:46.332Z,0.00
2019-04-21T19:21:49.916Z,0.00
2019-04-21T19:22:45.768Z,0.00
2019-04-21T19:23:59.261Z,0.00
2019-04-21T19:24:48.655Z,0.00
2019-04-21T19:25:49.968Z,0.00
2019-04-21T19:26:52.515Z,0.00
2019-04-21T19:27:45.502Z,0.00
2019-04-21T19:28:54.780Z,0.00
2019-04-21T19:29:53.955Z,0.00
2019-04-21T19:30:49.963Z,0.00
2019-04-21T19:31:49.574Z,0.00
2019-04-21T19:32:45.409Z,0.00
2019-04-21T19:33:36.241Z,0.00
2019-04-21T19:34:33.701Z,0.00
2019-04-21T19:35:27.852Z,0.00
2019-04-21T19:36:29.148Z,0.00
2019-04-21T19:37:28.892Z,0.00
2019-04-21T19:38:34.986Z,0.00
2019-04-21T19:39:43.371Z,0.00
2019-04-21T19:40:44.735Z,0.00
2019-04-21T19:41:41.155Z,0.00
2019-04-21T19:42:38.299Z,0.00
2019-04-21T19:43:45.998Z,0.00
2019-04-21T19:44:47.214Z,0.00
2019-04-21T19:45:38.121Z,0.00
2019-04-21T19:46:38.239Z,0.00
2019-04-21T19:47:48.807Z,0.00
2019-04-21T19:48:55.282Z,0.00
2019-04-21T19:49:49.687Z,0.00
2019-04-21T19:50:47.320Z,0.00
2019-04-21T19:51:40.552Z,0.00
2019-04-21T19:52:41.030Z,0.00
2019-04-21T19:53:41.588Z,0.00
2019-04-21T19:54:33.948Z,0.00
2019-04-21T19:55:27.814Z,0.00
2019-04-21T19:56:26.335Z,0.00
2019-04-21T19:57:27.244Z,0.00
2019-04-21T19:58:33.003Z,0.00
2019-04-21T19:59:34.647Z,0.00
2019-04-21T20:00:28.494Z,0.00
2019-04-21T20:01:27.594Z,0.00
2019-04-21T20:02:26.798Z,0.00
2019-04-21T20:03:26.416Z,0.00
2019-04-21T20:04:34.113Z,0.00
2019-04-21T20:05:36.083Z,0.00
2019-04-21T20:06:42.099Z,0.00
2019-04-21T20:07:43.875Z,0.00
2019-04-21T20:08:41.858Z,0.00
2019-04-21T20:09:43.296Z,0.00
2019-04-21T20:10:52.867Z,0.00
2019-04-21T20:11:41.739Z,0.00
2019-04-21T20:12:47.413Z,0.00
2019-04-21T20:14:27.597Z,0.00
2019-04-21T20:15:44.850Z,0.00
2019-04-21T20:16:45.274Z,0.00
2019-04-21T20:17:42.333Z,0.00
2019-04-21T20:18:34.815Z,0.00
2019-04-21T20:19:27.084Z,0.00
2019-04-21T20:20:26.933Z,0.00
2019-04-21T20:21:26.829Z,0.00
2019-04-21T20:22:32.732Z,0.00
2019-04-21T20:23:31.877Z,0.00
2019-04-21T20:24:31.621Z,0.00
2019-04-21T20:25:27.600Z,0.00
2019-04-21T20:26:31.334Z,0.00
2019-04-21T20:27:38.522Z,0.00
2019-04-21T20:28:44.336Z,0.00
2019-04-21T20:29:44.548Z,0.00
2019-04-21T20:30:42.624Z,0.00
2019-04-21T20:31:40.949Z,0.00
2019-04-21T20:32:48.853Z,0.00
2019-04-21T20:34:46.102Z,0.00
2019-04-21T20:35:53.400Z,0.00
2019-04-21T20:36:51.826Z,0.00
2019-04-21T20:37:42.288Z,0.00
2019-04-21T20:38:35.604Z,0.00
2019-04-21T20:39:38.249Z,0.00
2019-04-21T20:40:36.156Z,0.00
2019-04-21T20:41:40.642Z,0.00
2019-04-21T20:42:42.728Z,0.00
2019-04-21T20:43:46.523Z,0.00
2019-04-21T20:44:43.814Z,0.00
2019-04-21T20:45:49.446Z,0.00
2019-04-21T20:46:41.343Z,0.00
2019-04-21T20:47:35.583Z,0.00
2019-04-21T20:48:42.792Z,0.00
2019-04-21T20:49:35.235Z,0.00
2019-04-21T20:50:36.380Z,0.00
2019-04-21T20:51:46.863Z,0.00
2019-04-21T20:52:48.923Z,0.00
2019-04-21T20:53:41.561Z,0.00
2019-04-21T20:54:44.044Z,0.00
2019-04-21T20:55:42.971Z,0.00
2019-04-21T20:56:45.222Z,0.00
2019-04-21T20:57:40.838Z,0.00
2019-04-21T20:58:45.244Z,0.00
2019-04-21T20:59:36.971Z,0.00
2019-04-21T21:00:54.581Z,0.00
2019-04-21T21:01:43.322Z,0.00
2019-04-21T21:02:49.067Z,0.00
2019-04-21T21:03:43.235Z,0.00
2019-04-21T21:04:37.047Z,0.00
2019-04-21T21:05:39.878Z,0.00
2019-04-21T21:06:42.306Z,0.00
2019-04-21T21:07:47.273Z,0.00
2019-04-21T21:08:44.966Z,0.00
2019-04-21T21:09:41.236Z,0.00
2019-04-21T21:10:38.823Z,0.00
2019-04-21T21:11:46.728Z,0.00
2019-04-21T21:12:52.730Z,0.00
2019-04-21T21:13:44.477Z,0.00
2019-04-21T21:14:42.176Z,0.00
2019-04-21T21:15:44.573Z,0.00
2019-04-21T21:16:46.304Z,0.00
2019-04-21T21:19:48.673Z,0.00
2019-04-21T21:20:43.527Z,0.00
2019-04-21T21:21:40.217Z,0.00
2019-04-21T21:23:42.500Z,0.00
2019-04-21T21:24:49.544Z,0.00
2019-04-21T21:25:45.207Z,0.00
2019-04-21T21:26:47.091Z,0.00
2019-04-21T21:27:41.825Z,0.00
2019-04-21T21:28:39.051Z,0.00
2019-04-21T21:29:47.543Z,0.00
2019-04-21T21:30:37.539Z,0.00
2019-04-21T21:31:41.794Z,0.00
2019-04-21T21:32:42.803Z,0.00
2019-04-21T21:33:50.662Z,0.00
2019-04-21T21:34:45.395Z,0.00
2019-04-21T21:35:39.557Z,0.00
2019-04-21T21:36:43.513Z,0.00
2019-04-21T21:37:41.659Z,0.00
2019-04-21T21:38:45.881Z,0.00
2019-04-21T21:39:52.000Z,0.00
2019-04-21T21:40:42.816Z,0.00
2019-04-21T21:41:32.322Z,0.00
2019-04-21T21:42:31.881Z,0.00
2019-04-21T21:43:28.706Z,0.00
2019-04-21T21:44:28.206Z,0.00
2019-04-21T21:45:27.526Z,0.00
2019-04-21T21:46:40.154Z,0.00
2019-04-21T21:47:46.145Z,0.00
2019-04-21T21:48:40.808Z,0.00
2019-04-21T21:49:37.103Z,0.00
2019-04-21T21:50:35.783Z,0.00
2019-04-21T21:51:42.254Z,0.00
2019-04-21T21:52:39.940Z,0.00
2019-04-21T21:53:28.902Z,0.00
2019-04-21T21:54:27.628Z,0.00
2019-04-21T21:55:25.631Z,0.00
2019-04-21T21:56:25.059Z,0.00
2019-04-21T21:57:26.160Z,0.00
2019-04-21T21:58:31.084Z,0.00
2019-04-21T21:59:29.384Z,0.00
2019-04-21T22:00:26.099Z,0.00
2019-04-21T22:01:31.877Z,0.00
2019-04-21T22:02:35.315Z,0.00
2019-04-21T22:03:31.782Z,0.00
2019-04-21T22:04:28.861Z,0.00
2019-04-21T22:05:29.298Z,0.00
2019-04-21T22:06:38.731Z,0.00
2019-04-21T22:07:31.026Z,0.00
2019-04-21T22:08:25.910Z,0.00
2019-04-21T22:09:26.165Z,0.00
2019-04-21T22:10:25.302Z,0.00
2019-04-21T22:11:26.025Z,0.00
2019-04-21T22:12:25.841Z,0.00
2019-04-21T22:13:35.472Z,0.00
2019-04-21T22:14:34.062Z,0.00
2019-04-21T22:15:29.504Z,0.00
2019-04-21T22:16:38.869Z,0.00
2019-04-21T22:17:41.968Z,0.00
2019-04-21T22:18:43.310Z,0.00
2019-04-21T22:19:55.923Z,0.00
2019-04-21T22:20:44.484Z,0.00
2019-04-21T22:21:49.378Z,0.00
2019-04-21T22:22:40.146Z,0.00
2019-04-21T22:23:36.754Z,0.00
2019-04-21T22:24:43.974Z,0.00
2019-04-21T22:25:29.957Z,0.00
2019-04-21T22:26:27.190Z,0.00
2019-04-21T22:27:25.319Z,0.00
2019-04-21T22:28:25.378Z,0.00
2019-04-21T22:29:27.919Z,0.00
2019-04-21T22:30:34.413Z,0.00
2019-04-21T22:31:31.868Z,0.00
2019-04-21T22:32:29.004Z,0.00
2019-04-21T22:33:25.994Z,0.00
2019-04-21T22:34:30.234Z,0.00
2019-04-21T22:35:34.452Z,0.00
2019-04-21T22:36:36.565Z,0.00
2019-04-21T22:37:38.040Z,0.00
2019-04-21T22:38:40.895Z,0.00
2019-04-21T22:39:44.910Z,0.00
2019-04-21T22:40:42.941Z,0.00
2019-04-21T22:41:33.714Z,0.00
2019-04-21T22:42:29.605Z,0.00
2019-04-21T22:43:32.500Z,0.00
2019-04-21T22:44:25.519Z,0.00
2019-04-21T22:45:25.192Z,0.00
2019-04-21T22:46:24.532Z,0.00
2019-04-21T22:47:31.665Z,0.00
2019-04-21T22:48:28.646Z,0.00
2019-04-21T22:49:24.470Z,0.00
2019-04-21T22:50:24.654Z,0.00
2019-04-21T22:51:34.858Z,0.00
2019-04-21T22:52:29.544Z,0.00
2019-04-21T22:53:29.157Z,0.00
2019-04-21T22:54:31.860Z,0.00
2019-04-21T22:55:29.082Z,0.00
2019-04-21T22:56:30.066Z,0.00
2019-04-21T22:57:28.742Z,0.00
2019-04-21T22:58:33.164Z,0.00
2019-04-21T22:59:26.770Z,0.00
2019-04-21T23:00:25.618Z,0.00
2019-04-21T23:01:33.707Z,0.00
2019-04-21T23:02:29.664Z,0.00
2019-04-21T23:03:28.204Z,0.00
2019-04-21T23:04:25.446Z,0.00
2019-04-21T23:05:30.290Z,0.00
2019-04-21T23:06:29.020Z,0.00
2019-04-21T23:07:26.668Z,0.00
2019-04-21T23:08:30.419Z,0.00
2019-04-21T23:09:26.596Z,0.00
2019-04-21T23:10:25.373Z,0.00
2019-04-21T23:11:28.014Z,0.00
2019-04-21T23:12:28.251Z,0.00
2019-04-21T23:13:27.296Z,0.00
2019-04-21T23:14:25.768Z,0.00
2019-04-21T23:15:33.211Z,0.00
2019-04-21T23:16:31.103Z,0.00
2019-04-21T23:17:48.284Z,0.00
2019-04-21T23:18:39.038Z,0.00
2019-04-21T23:19:39.910Z,0.00
2019-04-21T23:20:43.337Z,0.00
2019-04-21T23:21:36.342Z,0.00
2019-04-21T23:22:55.003Z,0.00
2019-04-21T23:23:44.126Z,0.00
2019-04-21T23:24:45.525Z,0.00